sensor_id;sensor_type;location;lat;lon;timestamp;P1;durP1;ratioP1;P2;durP2;ratioP2
49310;SDS011;35177;45.900;5.946;2022-09-01T00:01:10;4.25;;;3.30;;
49310;SDS011;35177;45.900;5.946;2022-09-01T00:03:42;3.85;;;3.50;;
49310;SDS011;35177;45.900;5.946;2022-09-01T00:06:12;6.65;;;3.65;;
49310;SDS011;35177;45.900;5.946;2022-09-01T00:08:38;3.72;;;3.28;;
49310;SDS011;35177;45.900;5.946;2022-09-01T00:11:04;4.82;;;3.45;;
49310;SDS011;35177;45.900;5.946;2022-09-01T00:13:29;5.30;;;4.20;;
49310;SDS011;35177;45.900;5.946;2022-09-01T00:15:57;5.80;;;3.47;;
49310;SDS011;35177;45.900;5.946;2022-09-01T00:18:24;6.55;;;3.92;;
49310;SDS011;35177;45.900;5.946;2022-09-01T00:20:49;5.20;;;3.95;;
49310;SDS011;35177;45.900;5.946;2022-09-01T00:23:15;4.57;;;3.80;;
49310;SDS011;35177;45.900;5.946;2022-09-01T00:25:40;4.72;;;3.83;;
49310;SDS011;35177;45.900;5.946;2022-09-01T00:28:06;4.55;;;3.60;;
49310;SDS011;35177;45.900;5.946;2022-09-01T00:30:31;4.45;;;3.95;;
49310;SDS011;35177;45.900;5.946;2022-09-01T00:32:57;4.63;;;4.13;;
49310;SDS011;35177;45.900;5.946;2022-09-01T00:35:22;3.80;;;3.45;;
49310;SDS011;35177;45.900;5.946;2022-09-01T00:37:48;5.50;;;4.03;;
49310;SDS011;35177;45.900;5.946;2022-09-01T00:40:14;4.40;;;4.00;;
49310;SDS011;35177;45.900;5.946;2022-09-01T00:42:41;5.22;;;3.50;;
49310;SDS011;35177;45.900;5.946;2022-09-01T00:45:08;6.80;;;3.85;;
49310;SDS011;35177;45.900;5.946;2022-09-01T00:47:35;4.78;;;3.92;;
49310;SDS011;35177;45.900;5.946;2022-09-01T00:50:02;5.00;;;3.85;;
49310;SDS011;35177;45.900;5.946;2022-09-01T00:52:34;3.88;;;3.47;;
49310;SDS011;35177;45.900;5.946;2022-09-01T00:55:09;6.47;;;3.97;;
49310;SDS011;35177;45.900;5.946;2022-09-01T00:57:55;4.63;;;4.10;;
49310;SDS011;35177;45.900;5.946;2022-09-01T01:00:25;5.72;;;4.13;;
49310;SDS011;35177;45.900;5.946;2022-09-01T01:02:53;4.75;;;3.78;;
49310;SDS011;35177;45.900;5.946;2022-09-01T01:05:28;4.85;;;4.38;;
49310;SDS011;35177;45.900;5.946;2022-09-01T01:07:58;7.13;;;3.80;;
49310;SDS011;35177;45.900;5.946;2022-09-01T01:10:25;4.70;;;4.18;;
49310;SDS011;35177;45.900;5.946;2022-09-01T01:12:56;4.97;;;4.05;;
49310;SDS011;35177;45.900;5.946;2022-09-01T01:15:26;5.75;;;4.18;;
49310;SDS011;35177;45.900;5.946;2022-09-01T01:17:53;4.97;;;4.47;;
49310;SDS011;35177;45.900;5.946;2022-09-01T01:20:18;4.60;;;4.18;;
49310;SDS011;35177;45.900;5.946;2022-09-01T01:26:05;5.32;;;4.38;;
49310;SDS011;35177;45.900;5.946;2022-09-01T01:28:35;6.70;;;4.00;;
49310;SDS011;35177;45.900;5.946;2022-09-01T01:31:05;4.10;;;3.70;;
49310;SDS011;35177;45.900;5.946;2022-09-01T01:33:42;4.75;;;4.35;;
49310;SDS011;35177;45.900;5.946;2022-09-01T01:36:15;6.47;;;4.70;;
49310;SDS011;35177;45.900;5.946;2022-09-01T01:38:57;4.70;;;4.28;;
49310;SDS011;35177;45.900;5.946;2022-09-01T01:41:27;4.88;;;4.38;;
49310;SDS011;35177;45.900;5.946;2022-09-01T01:43:56;6.18;;;4.30;;
49310;SDS011;35177;45.900;5.946;2022-09-01T01:46:24;4.47;;;4.07;;
49310;SDS011;35177;45.900;5.946;2022-09-01T01:48:50;5.07;;;4.20;;
49310;SDS011;35177;45.900;5.946;2022-09-01T01:51:18;7.50;;;5.10;;
49310;SDS011;35177;45.900;5.946;2022-09-01T01:53:45;6.70;;;4.75;;
49310;SDS011;35177;45.900;5.946;2022-09-01T01:56:12;10.23;;;4.22;;
49310;SDS011;35177;45.900;5.946;2022-09-01T01:58:38;5.28;;;4.40;;
49310;SDS011;35177;45.900;5.946;2022-09-01T02:01:04;6.22;;;4.75;;
49310;SDS011;35177;45.900;5.946;2022-09-01T02:03:34;5.85;;;4.32;;
49310;SDS011;35177;45.900;5.946;2022-09-01T02:06:03;7.95;;;4.30;;
49310;SDS011;35177;45.900;5.946;2022-09-01T02:08:32;6.22;;;4.95;;
49310;SDS011;35177;45.900;5.946;2022-09-01T02:11:00;7.10;;;4.70;;
49310;SDS011;35177;45.900;5.946;2022-09-01T02:13:26;7.03;;;5.38;;
49310;SDS011;35177;45.900;5.946;2022-09-01T02:15:56;5.90;;;5.00;;
49310;SDS011;35177;45.900;5.946;2022-09-01T02:18:26;6.25;;;5.47;;
49310;SDS011;35177;45.900;5.946;2022-09-01T02:21:02;6.20;;;4.78;;
49310;SDS011;35177;45.900;5.946;2022-09-01T02:23:34;5.53;;;4.95;;
49310;SDS011;35177;45.900;5.946;2022-09-01T02:26:00;5.82;;;4.70;;
49310;SDS011;35177;45.900;5.946;2022-09-01T02:28:26;5.63;;;5.10;;
49310;SDS011;35177;45.900;5.946;2022-09-01T02:30:55;6.05;;;5.25;;
49310;SDS011;35177;45.900;5.946;2022-09-01T02:33:24;6.65;;;4.55;;
49310;SDS011;35177;45.900;5.946;2022-09-01T02:35:53;6.80;;;5.40;;
49310;SDS011;35177;45.900;5.946;2022-09-01T02:38:21;6.75;;;5.30;;
49310;SDS011;35177;45.900;5.946;2022-09-01T02:40:52;6.22;;;5.38;;
49310;SDS011;35177;45.900;5.946;2022-09-01T02:43:18;7.72;;;4.82;;
49310;SDS011;35177;45.900;5.946;2022-09-01T02:45:45;6.35;;;4.80;;
49310;SDS011;35177;45.900;5.946;2022-09-01T02:48:19;5.25;;;4.75;;
49310;SDS011;35177;45.900;5.946;2022-09-01T02:50:48;9.70;;;6.03;;
49310;SDS011;35177;45.900;5.946;2022-09-01T02:53:14;12.80;;;6.28;;
49310;SDS011;35177;45.900;5.946;2022-09-01T02:55:40;8.38;;;4.95;;
49310;SDS011;35177;45.900;5.946;2022-09-01T02:58:06;8.05;;;4.90;;
49310;SDS011;35177;45.900;5.946;2022-09-01T03:00:36;5.90;;;5.30;;
49310;SDS011;35177;45.900;5.946;2022-09-01T03:03:04;7.25;;;6.13;;
49310;SDS011;35177;45.900;5.946;2022-09-01T03:05:31;7.40;;;5.45;;
49310;SDS011;35177;45.900;5.946;2022-09-01T03:07:59;5.35;;;4.80;;
49310;SDS011;35177;45.900;5.946;2022-09-01T03:10:29;7.03;;;5.13;;
49310;SDS011;35177;45.900;5.946;2022-09-01T03:13:08;10.30;;;5.28;;
49310;SDS011;35177;45.900;5.946;2022-09-01T03:15:37;5.53;;;4.45;;
49310;SDS011;35177;45.900;5.946;2022-09-01T03:18:04;6.28;;;4.40;;
49310;SDS011;35177;45.900;5.946;2022-09-01T03:20:32;5.43;;;4.93;;
49310;SDS011;35177;45.900;5.946;2022-09-01T03:23:00;7.93;;;5.07;;
49310;SDS011;35177;45.900;5.946;2022-09-01T03:25:29;8.90;;;4.35;;
49310;SDS011;35177;45.900;5.946;2022-09-01T03:27:56;6.15;;;4.35;;
49310;SDS011;35177;45.900;5.946;2022-09-01T03:30:30;10.15;;;5.45;;
49310;SDS011;35177;45.900;5.946;2022-09-01T03:32:58;7.93;;;4.40;;
49310;SDS011;35177;45.900;5.946;2022-09-01T03:35:25;7.35;;;5.65;;
49310;SDS011;35177;45.900;5.946;2022-09-01T03:37:53;8.43;;;6.28;;
49310;SDS011;35177;45.900;5.946;2022-09-01T03:40:23;6.30;;;5.30;;
49310;SDS011;35177;45.900;5.946;2022-09-01T03:42:51;9.70;;;5.53;;
49310;SDS011;35177;45.900;5.946;2022-09-01T03:45:19;8.38;;;5.40;;
49310;SDS011;35177;45.900;5.946;2022-09-01T03:47:46;9.10;;;6.22;;
49310;SDS011;35177;45.900;5.946;2022-09-01T03:50:13;10.10;;;6.70;;
49310;SDS011;35177;45.900;5.946;2022-09-01T03:52:47;7.35;;;6.65;;
49310;SDS011;35177;45.900;5.946;2022-09-01T03:55:19;9.20;;;7.43;;
49310;SDS011;35177;45.900;5.946;2022-09-01T03:57:51;8.07;;;6.53;;
49310;SDS011;35177;45.900;5.946;2022-09-01T04:00:18;7.30;;;6.55;;
49310;SDS011;35177;45.900;5.946;2022-09-01T04:02:47;9.68;;;6.57;;
49310;SDS011;35177;45.900;5.946;2022-09-01T04:05:15;8.32;;;7.43;;
49310;SDS011;35177;45.900;5.946;2022-09-01T04:10:16;6.40;;;5.80;;
49310;SDS011;35177;45.900;5.946;2022-09-01T04:12:43;8.07;;;5.15;;
49310;SDS011;35177;45.900;5.946;2022-09-01T04:15:10;5.50;;;4.75;;
49310;SDS011;35177;45.900;5.946;2022-09-01T04:17:36;5.25;;;3.80;;
49310;SDS011;35177;45.900;5.946;2022-09-01T04:20:20;7.82;;;5.50;;
49310;SDS011;35177;45.900;5.946;2022-09-01T04:22:47;7.28;;;5.50;;
49310;SDS011;35177;45.900;5.946;2022-09-01T04:25:14;6.70;;;5.70;;
49310;SDS011;35177;45.900;5.946;2022-09-01T04:27:41;10.60;;;6.82;;
49310;SDS011;35177;45.900;5.946;2022-09-01T04:30:09;8.77;;;6.45;;
49310;SDS011;35177;45.900;5.946;2022-09-01T04:32:36;6.65;;;5.85;;
49310;SDS011;35177;45.900;5.946;2022-09-01T04:35:03;8.02;;;5.72;;
49310;SDS011;35177;45.900;5.946;2022-09-01T04:37:29;8.93;;;5.97;;
49310;SDS011;35177;45.900;5.946;2022-09-01T04:39:55;7.85;;;5.05;;
49310;SDS011;35177;45.900;5.946;2022-09-01T04:42:22;7.00;;;5.68;;
49310;SDS011;35177;45.900;5.946;2022-09-01T04:44:50;6.15;;;5.55;;
49310;SDS011;35177;45.900;5.946;2022-09-01T04:47:17;8.65;;;4.97;;
49310;SDS011;35177;45.900;5.946;2022-09-01T04:49:44;5.43;;;4.93;;
49310;SDS011;35177;45.900;5.946;2022-09-01T04:52:12;7.50;;;5.53;;
49310;SDS011;35177;45.900;5.946;2022-09-01T04:54:38;9.10;;;5.93;;
49310;SDS011;35177;45.900;5.946;2022-09-01T04:57:04;14.30;;;5.90;;
49310;SDS011;35177;45.900;5.946;2022-09-01T04:59:31;9.55;;;6.07;;
49310;SDS011;35177;45.900;5.946;2022-09-01T05:01:57;8.38;;;5.13;;
49310;SDS011;35177;45.900;5.946;2022-09-01T05:04:25;7.60;;;5.25;;
49310;SDS011;35177;45.900;5.946;2022-09-01T05:06:55;9.15;;;5.63;;
49310;SDS011;35177;45.900;5.946;2022-09-01T05:09:29;9.77;;;6.82;;
49310;SDS011;35177;45.900;5.946;2022-09-01T05:11:59;6.82;;;5.47;;
49310;SDS011;35177;45.900;5.946;2022-09-01T05:14:36;8.48;;;5.60;;
49310;SDS011;35177;45.900;5.946;2022-09-01T05:17:02;7.20;;;6.38;;
49310;SDS011;35177;45.900;5.946;2022-09-01T05:19:34;6.43;;;5.82;;
49310;SDS011;35177;45.900;5.946;2022-09-01T05:22:01;9.40;;;5.18;;
49310;SDS011;35177;45.900;5.946;2022-09-01T05:24:29;8.45;;;6.10;;
49310;SDS011;35177;45.900;5.946;2022-09-01T05:26:56;7.50;;;6.03;;
49310;SDS011;35177;45.900;5.946;2022-09-01T05:29:23;12.05;;;7.10;;
49310;SDS011;35177;45.900;5.946;2022-09-01T05:31:51;8.63;;;6.53;;
49310;SDS011;35177;45.900;5.946;2022-09-01T05:34:19;10.23;;;6.82;;
49310;SDS011;35177;45.900;5.946;2022-09-01T05:36:50;8.63;;;6.85;;
49310;SDS011;35177;45.900;5.946;2022-09-01T05:39:17;10.30;;;6.95;;
49310;SDS011;35177;45.900;5.946;2022-09-01T05:41:45;10.60;;;6.85;;
49310;SDS011;35177;45.900;5.946;2022-09-01T05:44:12;10.13;;;7.40;;
49310;SDS011;35177;45.900;5.946;2022-09-01T05:46:39;8.75;;;7.55;;
49310;SDS011;35177;45.900;5.946;2022-09-01T05:49:08;10.63;;;7.57;;
49310;SDS011;35177;45.900;5.946;2022-09-01T05:51:38;7.57;;;6.85;;
49310;SDS011;35177;45.900;5.946;2022-09-01T05:54:06;10.88;;;7.78;;
49310;SDS011;35177;45.900;5.946;2022-09-01T05:56:34;10.40;;;8.55;;
49310;SDS011;35177;45.900;5.946;2022-09-01T05:59:05;9.82;;;7.35;;
49310;SDS011;35177;45.900;5.946;2022-09-01T06:01:31;10.35;;;8.00;;
49310;SDS011;35177;45.900;5.946;2022-09-01T06:03:58;11.77;;;6.95;;
49310;SDS011;35177;45.900;5.946;2022-09-01T06:06:28;11.10;;;7.97;;
49310;SDS011;35177;45.900;5.946;2022-09-01T06:09:02;13.57;;;8.20;;
49310;SDS011;35177;45.900;5.946;2022-09-01T06:11:30;9.55;;;8.50;;
49310;SDS011;35177;45.900;5.946;2022-09-01T06:13:57;8.20;;;7.30;;
49310;SDS011;35177;45.900;5.946;2022-09-01T06:16:26;12.80;;;7.10;;
49310;SDS011;35177;45.900;5.946;2022-09-01T06:18:53;10.80;;;6.30;;
49310;SDS011;35177;45.900;5.946;2022-09-01T06:21:21;10.35;;;7.03;;
49310;SDS011;35177;45.900;5.946;2022-09-01T06:23:49;14.32;;;7.22;;
49310;SDS011;35177;45.900;5.946;2022-09-01T06:26:22;9.50;;;7.00;;
49310;SDS011;35177;45.900;5.946;2022-09-01T06:28:59;10.65;;;7.38;;
49310;SDS011;35177;45.900;5.946;2022-09-01T06:31:30;13.52;;;7.65;;
49310;SDS011;35177;45.900;5.946;2022-09-01T06:33:58;8.60;;;7.72;;
49310;SDS011;35177;45.900;5.946;2022-09-01T06:36:26;8.73;;;7.57;;
49310;SDS011;35177;45.900;5.946;2022-09-01T06:38:53;14.70;;;8.23;;
49310;SDS011;35177;45.900;5.946;2022-09-01T06:41:19;8.75;;;7.72;;
49310;SDS011;35177;45.900;5.946;2022-09-01T06:43:46;13.45;;;7.50;;
49310;SDS011;35177;45.900;5.946;2022-09-01T06:46:13;12.75;;;7.50;;
49310;SDS011;35177;45.900;5.946;2022-09-01T06:48:41;11.43;;;8.63;;
49310;SDS011;35177;45.900;5.946;2022-09-01T06:51:10;14.07;;;9.10;;
49310;SDS011;35177;45.900;5.946;2022-09-01T06:53:38;13.30;;;9.40;;
49310;SDS011;35177;45.900;5.946;2022-09-01T06:56:05;10.23;;;9.23;;
49310;SDS011;35177;45.900;5.946;2022-09-01T06:58:33;11.65;;;8.73;;
49310;SDS011;35177;45.900;5.946;2022-09-01T07:01:03;16.30;;;8.05;;
49310;SDS011;35177;45.900;5.946;2022-09-01T07:03:30;10.82;;;7.80;;
49310;SDS011;35177;45.900;5.946;2022-09-01T07:05:57;13.02;;;8.00;;
49310;SDS011;35177;45.900;5.946;2022-09-01T07:08:22;10.63;;;8.60;;
49310;SDS011;35177;45.900;5.946;2022-09-01T07:10:48;10.75;;;8.18;;
49310;SDS011;35177;45.900;5.946;2022-09-01T07:13:17;11.00;;;8.45;;
49310;SDS011;35177;45.900;5.946;2022-09-01T07:15:51;11.65;;;7.57;;
49310;SDS011;35177;45.900;5.946;2022-09-01T07:18:19;9.70;;;7.63;;
49310;SDS011;35177;45.900;5.946;2022-09-01T07:20:47;11.90;;;6.60;;
49310;SDS011;35177;45.900;5.946;2022-09-01T07:23:16;9.55;;;6.93;;
49310;SDS011;35177;45.900;5.946;2022-09-01T07:25:47;8.57;;;7.03;;
49310;SDS011;35177;45.900;5.946;2022-09-01T07:28:15;10.07;;;7.00;;
49310;SDS011;35177;45.900;5.946;2022-09-01T07:30:44;9.35;;;6.70;;
49310;SDS011;35177;45.900;5.946;2022-09-01T07:33:16;9.52;;;6.45;;
49310;SDS011;35177;45.900;5.946;2022-09-01T07:35:49;8.98;;;7.20;;
49310;SDS011;35177;45.900;5.946;2022-09-01T07:38:20;9.50;;;7.32;;
49310;SDS011;35177;45.900;5.946;2022-09-01T07:40:46;11.23;;;7.85;;
49310;SDS011;35177;45.900;5.946;2022-09-01T07:43:25;9.45;;;7.47;;
49310;SDS011;35177;45.900;5.946;2022-09-01T07:45:53;11.65;;;7.72;;
49310;SDS011;35177;45.900;5.946;2022-09-01T07:48:21;11.32;;;8.65;;
49310;SDS011;35177;45.900;5.946;2022-09-01T07:50:49;15.55;;;8.68;;
49310;SDS011;35177;45.900;5.946;2022-09-01T07:53:27;8.60;;;7.68;;
49310;SDS011;35177;45.900;5.946;2022-09-01T07:55:55;11.93;;;8.30;;
49310;SDS011;35177;45.900;5.946;2022-09-01T07:58:24;10.60;;;9.43;;
49310;SDS011;35177;45.900;5.946;2022-09-01T08:00:51;14.25;;;10.38;;
49310;SDS011;35177;45.900;5.946;2022-09-01T08:03:19;10.73;;;8.93;;
49310;SDS011;35177;45.900;5.946;2022-09-01T08:05:47;11.48;;;9.32;;
49310;SDS011;35177;45.900;5.946;2022-09-01T08:08:18;10.65;;;9.45;;
49310;SDS011;35177;45.900;5.946;2022-09-01T08:10:44;13.98;;;8.10;;
49310;SDS011;35177;45.900;5.946;2022-09-01T08:13:10;11.68;;;8.52;;
49310;SDS011;35177;45.900;5.946;2022-09-01T08:15:37;10.07;;;7.22;;
49310;SDS011;35177;45.900;5.946;2022-09-01T08:18:04;7.13;;;6.43;;
49310;SDS011;35177;45.900;5.946;2022-09-01T08:20:29;6.93;;;6.22;;
49310;SDS011;35177;45.900;5.946;2022-09-01T08:22:59;12.02;;;6.53;;
49310;SDS011;35177;45.900;5.946;2022-09-01T08:25:25;8.30;;;6.55;;
49310;SDS011;35177;45.900;5.946;2022-09-01T08:27:50;8.18;;;5.90;;
49310;SDS011;35177;45.900;5.946;2022-09-01T08:30:16;7.30;;;6.10;;
49310;SDS011;35177;45.900;5.946;2022-09-01T08:32:41;6.72;;;6.00;;
49310;SDS011;35177;45.900;5.946;2022-09-01T08:35:10;8.70;;;6.55;;
49310;SDS011;35177;45.900;5.946;2022-09-01T08:37:37;6.97;;;6.30;;
49310;SDS011;35177;45.900;5.946;2022-09-01T08:40:04;7.22;;;6.25;;
49310;SDS011;35177;45.900;5.946;2022-09-01T08:45:22;9.75;;;6.53;;
49310;SDS011;35177;45.900;5.946;2022-09-01T08:47:54;7.07;;;6.28;;
49310;SDS011;35177;45.900;5.946;2022-09-01T08:50:26;6.45;;;5.85;;
49310;SDS011;35177;45.900;5.946;2022-09-01T08:56:07;7.13;;;5.88;;
49310;SDS011;35177;45.900;5.946;2022-09-01T08:58:35;8.55;;;5.82;;
49310;SDS011;35177;45.900;5.946;2022-09-01T09:01:02;5.88;;;5.28;;
49310;SDS011;35177;45.900;5.946;2022-09-01T09:08:56;6.43;;;5.82;;
49310;SDS011;35177;45.900;5.946;2022-09-01T09:17:07;6.55;;;5.20;;
49310;SDS011;35177;45.900;5.946;2022-09-01T09:19:34;6.00;;;5.47;;
49310;SDS011;35177;45.900;5.946;2022-09-01T09:22:06;7.15;;;5.50;;
49310;SDS011;35177;45.900;5.946;2022-09-01T09:27:55;6.03;;;5.40;;
49310;SDS011;35177;45.900;5.946;2022-09-01T09:30:25;5.07;;;4.53;;
49310;SDS011;35177;45.900;5.946;2022-09-01T09:32:59;5.28;;;4.78;;
49310;SDS011;35177;45.900;5.946;2022-09-01T09:35:37;6.30;;;4.55;;
49310;SDS011;35177;45.900;5.946;2022-09-01T09:40:54;6.72;;;4.88;;
49310;SDS011;35177;45.900;5.946;2022-09-01T09:43:25;5.68;;;4.35;;
49310;SDS011;35177;45.900;5.946;2022-09-01T09:51:41;6.28;;;5.22;;
49310;SDS011;35177;45.900;5.946;2022-09-01T09:54:09;5.22;;;4.63;;
49310;SDS011;35177;45.900;5.946;2022-09-01T09:56:40;6.82;;;5.15;;
49310;SDS011;35177;45.900;5.946;2022-09-01T10:01:42;5.18;;;4.40;;
49310;SDS011;35177;45.900;5.946;2022-09-01T10:04:08;4.30;;;3.90;;
49310;SDS011;35177;45.900;5.946;2022-09-01T10:06:41;5.57;;;4.38;;
49310;SDS011;35177;45.900;5.946;2022-09-01T10:09:15;7.60;;;4.80;;
49310;SDS011;35177;45.900;5.946;2022-09-01T10:11:42;5.70;;;4.97;;
49310;SDS011;35177;45.900;5.946;2022-09-01T10:14:15;4.25;;;3.85;;
49310;SDS011;35177;45.900;5.946;2022-09-01T10:16:43;5.40;;;4.22;;
49310;SDS011;35177;45.900;5.946;2022-09-01T10:19:15;6.38;;;4.35;;
49310;SDS011;35177;45.900;5.946;2022-09-01T10:21:42;7.80;;;4.20;;
49310;SDS011;35177;45.900;5.946;2022-09-01T10:27:00;4.43;;;4.00;;
49310;SDS011;35177;45.900;5.946;2022-09-01T10:29:38;4.40;;;3.55;;
49310;SDS011;35177;45.900;5.946;2022-09-01T10:32:10;4.63;;;3.95;;
49310;SDS011;35177;45.900;5.946;2022-09-01T10:34:40;5.65;;;4.03;;
49310;SDS011;35177;45.900;5.946;2022-09-01T10:37:06;5.28;;;4.10;;
49310;SDS011;35177;45.900;5.946;2022-09-01T10:39:32;5.72;;;3.70;;
49310;SDS011;35177;45.900;5.946;2022-09-01T10:41:59;5.05;;;3.72;;
49310;SDS011;35177;45.900;5.946;2022-09-01T10:44:36;6.32;;;3.72;;
49310;SDS011;35177;45.900;5.946;2022-09-01T10:49:56;4.40;;;3.75;;
49310;SDS011;35177;45.900;5.946;2022-09-01T11:00:54;4.03;;;3.63;;
49310;SDS011;35177;45.900;5.946;2022-09-01T11:03:32;3.95;;;3.28;;
49310;SDS011;35177;45.900;5.946;2022-09-01T11:06:07;3.83;;;3.40;;
49310;SDS011;35177;45.900;5.946;2022-09-01T11:13:55;5.03;;;3.88;;
49310;SDS011;35177;45.900;5.946;2022-09-01T11:16:40;4.07;;;3.20;;
49310;SDS011;35177;45.900;5.946;2022-09-01T11:22:01;3.25;;;2.95;;
49310;SDS011;35177;45.900;5.946;2022-09-01T11:27:07;4.90;;;3.35;;
49310;SDS011;35177;45.900;5.946;2022-09-01T11:29:50;4.38;;;3.40;;
49310;SDS011;35177;45.900;5.946;2022-09-01T11:32:30;3.10;;;2.80;;
49310;SDS011;35177;45.900;5.946;2022-09-01T11:34:59;9.73;;;3.63;;
49310;SDS011;35177;45.900;5.946;2022-09-01T11:37:29;4.25;;;3.33;;
49310;SDS011;35177;45.900;5.946;2022-09-01T11:39:57;4.22;;;3.22;;
49310;SDS011;35177;45.900;5.946;2022-09-01T11:42:27;3.80;;;3.22;;
49310;SDS011;35177;45.900;5.946;2022-09-01T11:45:02;3.97;;;2.80;;
49310;SDS011;35177;45.900;5.946;2022-09-01T11:47:35;4.65;;;2.70;;
49310;SDS011;35177;45.900;5.946;2022-09-01T11:50:16;3.50;;;3.13;;
49310;SDS011;35177;45.900;5.946;2022-09-01T11:52:53;2.60;;;2.40;;
49310;SDS011;35177;45.900;5.946;2022-09-01T11:55:29;6.65;;;2.80;;
49310;SDS011;35177;45.900;5.946;2022-09-01T11:57:57;4.13;;;2.53;;
49310;SDS011;35177;45.900;5.946;2022-09-01T12:00:28;2.60;;;2.30;;
49310;SDS011;35177;45.900;5.946;2022-09-01T12:02:57;5.60;;;2.70;;
49310;SDS011;35177;45.900;5.946;2022-09-01T12:07:52;3.35;;;1.90;;
49310;SDS011;35177;45.900;5.946;2022-09-01T12:10:20;3.97;;;2.80;;
49310;SDS011;35177;45.900;5.946;2022-09-01T12:13:09;5.03;;;2.78;;
49310;SDS011;35177;45.900;5.946;2022-09-01T12:15:56;3.13;;;2.77;;
49310;SDS011;35177;45.900;5.946;2022-09-01T12:18:25;4.57;;;2.42;;
49310;SDS011;35177;45.900;5.946;2022-09-01T12:20:53;3.35;;;1.90;;
49310;SDS011;35177;45.900;5.946;2022-09-01T12:25:49;5.30;;;2.90;;
49310;SDS011;35177;45.900;5.946;2022-09-01T12:31:41;3.25;;;2.65;;
49310;SDS011;35177;45.900;5.946;2022-09-01T12:37:18;4.40;;;2.42;;
49310;SDS011;35177;45.900;5.946;2022-09-01T12:39:48;3.25;;;2.50;;
49310;SDS011;35177;45.900;5.946;2022-09-01T12:52:27;2.58;;;2.35;;
49310;SDS011;35177;45.900;5.946;2022-09-01T12:55:07;4.60;;;2.38;;
49310;SDS011;35177;45.900;5.946;2022-09-01T12:57:39;2.15;;;2.00;;
49310;SDS011;35177;45.900;5.946;2022-09-01T13:02:43;2.85;;;2.50;;
49310;SDS011;35177;45.900;5.946;2022-09-01T13:08:03;6.05;;;2.20;;
49310;SDS011;35177;45.900;5.946;2022-09-01T13:10:35;3.50;;;2.40;;
49310;SDS011;35177;45.900;5.946;2022-09-01T13:13:15;3.15;;;2.33;;
49310;SDS011;35177;45.900;5.946;2022-09-01T13:15:52;2.70;;;2.30;;
49310;SDS011;35177;45.900;5.946;2022-09-01T13:18:21;3.58;;;2.40;;
49310;SDS011;35177;45.900;5.946;2022-09-01T13:20:48;3.08;;;2.13;;
49310;SDS011;35177;45.900;5.946;2022-09-01T13:23:14;4.20;;;2.30;;
49310;SDS011;35177;45.900;5.946;2022-09-01T13:25:41;2.22;;;2.03;;
49310;SDS011;35177;45.900;5.946;2022-09-01T13:28:10;2.67;;;1.90;;
49310;SDS011;35177;45.900;5.946;2022-09-01T13:30:37;2.70;;;2.47;;
49310;SDS011;35177;45.900;5.946;2022-09-01T13:33:04;3.58;;;2.13;;
49310;SDS011;35177;45.900;5.946;2022-09-01T13:35:29;2.83;;;2.13;;
49310;SDS011;35177;45.900;5.946;2022-09-01T13:37:55;2.47;;;2.20;;
49310;SDS011;35177;45.900;5.946;2022-09-01T13:40:21;2.05;;;1.85;;
49310;SDS011;35177;45.900;5.946;2022-09-01T13:42:48;1.92;;;1.77;;
49310;SDS011;35177;45.900;5.946;2022-09-01T13:45:16;2.88;;;1.73;;
49310;SDS011;35177;45.900;5.946;2022-09-01T13:48:20;2.50;;;2.30;;
49310;SDS011;35177;45.900;5.946;2022-09-01T13:50:47;2.78;;;2.38;;
49310;SDS011;35177;45.900;5.946;2022-09-01T13:53:15;2.20;;;2.00;;
49310;SDS011;35177;45.900;5.946;2022-09-01T13:55:41;3.55;;;2.00;;
49310;SDS011;35177;45.900;5.946;2022-09-01T13:58:07;2.72;;;2.53;;
49310;SDS011;35177;45.900;5.946;2022-09-01T14:00:36;2.70;;;2.20;;
49310;SDS011;35177;45.900;5.946;2022-09-01T14:03:05;4.80;;;1.90;;
49310;SDS011;35177;45.900;5.946;2022-09-01T14:05:34;2.47;;;2.17;;
49310;SDS011;35177;45.900;5.946;2022-09-01T14:08:03;2.72;;;2.10;;
49310;SDS011;35177;45.900;5.946;2022-09-01T14:10:30;3.13;;;2.47;;
49310;SDS011;35177;45.900;5.946;2022-09-01T14:12:57;5.43;;;2.50;;
49310;SDS011;35177;45.900;5.946;2022-09-01T14:15:24;3.95;;;2.50;;
49310;SDS011;35177;45.900;5.946;2022-09-01T14:17:51;3.70;;;2.25;;
49310;SDS011;35177;45.900;5.946;2022-09-01T14:20:19;2.92;;;2.10;;
49310;SDS011;35177;45.900;5.946;2022-09-01T14:22:47;4.93;;;2.20;;
49310;SDS011;35177;45.900;5.946;2022-09-01T14:25:17;4.65;;;2.58;;
49310;SDS011;35177;45.900;5.946;2022-09-01T14:27:44;3.28;;;2.30;;
49310;SDS011;35177;45.900;5.946;2022-09-01T14:30:13;3.00;;;2.47;;
49310;SDS011;35177;45.900;5.946;2022-09-01T14:32:41;7.35;;;2.38;;
49310;SDS011;35177;45.900;5.946;2022-09-01T14:35:07;2.50;;;2.30;;
49310;SDS011;35177;45.900;5.946;2022-09-01T14:37:35;3.15;;;2.63;;
49310;SDS011;35177;45.900;5.946;2022-09-01T14:40:01;2.88;;;2.67;;
49310;SDS011;35177;45.900;5.946;2022-09-01T14:42:28;4.10;;;3.25;;
49310;SDS011;35177;45.900;5.946;2022-09-01T14:44:54;3.42;;;2.90;;
49310;SDS011;35177;45.900;5.946;2022-09-01T14:47:20;3.13;;;2.83;;
49310;SDS011;35177;45.900;5.946;2022-09-01T14:49:48;2.70;;;2.50;;
49310;SDS011;35177;45.900;5.946;2022-09-01T14:52:14;7.00;;;2.22;;
49310;SDS011;35177;45.900;5.946;2022-09-01T14:54:42;3.10;;;2.35;;
49310;SDS011;35177;45.900;5.946;2022-09-01T14:57:07;4.85;;;2.42;;
49310;SDS011;35177;45.900;5.946;2022-09-01T14:59:33;2.42;;;2.22;;
49310;SDS011;35177;45.900;5.946;2022-09-01T15:02:00;2.55;;;2.35;;
49310;SDS011;35177;45.900;5.946;2022-09-01T15:04:25;4.78;;;2.33;;
49310;SDS011;35177;45.900;5.946;2022-09-01T15:06:52;3.38;;;2.50;;
49310;SDS011;35177;45.900;5.946;2022-09-01T15:09:18;4.05;;;2.60;;
49310;SDS011;35177;45.900;5.946;2022-09-01T15:11:43;2.92;;;2.47;;
49310;SDS011;35177;45.900;5.946;2022-09-01T15:14:09;5.10;;;2.70;;
49310;SDS011;35177;45.900;5.946;2022-09-01T15:16:35;3.17;;;2.72;;
49310;SDS011;35177;45.900;5.946;2022-09-01T15:19:06;6.70;;;2.85;;
49310;SDS011;35177;45.900;5.946;2022-09-01T15:21:34;4.68;;;2.83;;
49310;SDS011;35177;45.900;5.946;2022-09-01T15:24:00;3.63;;;2.45;;
49310;SDS011;35177;45.900;5.946;2022-09-01T15:26:27;2.72;;;2.53;;
49310;SDS011;35177;45.900;5.946;2022-09-01T15:28:53;3.38;;;2.70;;
49310;SDS011;35177;45.900;5.946;2022-09-01T15:31:19;3.30;;;2.78;;
49310;SDS011;35177;45.900;5.946;2022-09-01T15:33:46;3.75;;;2.40;;
49310;SDS011;35177;45.900;5.946;2022-09-01T15:36:15;4.43;;;2.75;;
49310;SDS011;35177;45.900;5.946;2022-09-01T15:38:43;13.73;;;2.85;;
49310;SDS011;35177;45.900;5.946;2022-09-01T15:41:14;3.75;;;2.83;;
49310;SDS011;35177;45.900;5.946;2022-09-01T15:43:50;3.80;;;2.80;;
49310;SDS011;35177;45.900;5.946;2022-09-01T15:46:22;4.28;;;2.85;;
49310;SDS011;35177;45.900;5.946;2022-09-01T15:49:03;3.58;;;2.83;;
49310;SDS011;35177;45.900;5.946;2022-09-01T15:51:34;4.93;;;2.60;;
49310;SDS011;35177;45.900;5.946;2022-09-01T15:54:03;2.60;;;2.40;;
49310;SDS011;35177;45.900;5.946;2022-09-01T15:56:36;3.97;;;2.67;;
49310;SDS011;35177;45.900;5.946;2022-09-01T15:59:02;5.68;;;2.30;;
49310;SDS011;35177;45.900;5.946;2022-09-01T16:01:30;2.75;;;2.30;;
49310;SDS011;35177;45.900;5.946;2022-09-01T16:03:58;2.67;;;2.45;;
49310;SDS011;35177;45.900;5.946;2022-09-01T16:06:25;3.25;;;2.40;;
49310;SDS011;35177;45.900;5.946;2022-09-01T16:08:51;2.70;;;2.22;;
49310;SDS011;35177;45.900;5.946;2022-09-01T16:11:18;5.55;;;2.30;;
49310;SDS011;35177;45.900;5.946;2022-09-01T16:13:47;2.25;;;2.00;;
49310;SDS011;35177;45.900;5.946;2022-09-01T16:18:54;2.80;;;2.15;;
49310;SDS011;35177;45.900;5.946;2022-09-01T16:24:27;3.42;;;2.20;;
49310;SDS011;35177;45.900;5.946;2022-09-01T16:26:55;3.75;;;2.30;;
49310;SDS011;35177;45.900;5.946;2022-09-01T16:29:37;3.63;;;2.25;;
49310;SDS011;35177;45.900;5.946;2022-09-01T16:32:08;3.40;;;2.17;;